sensor_id;sensor_type;location;lat;lon;timestamp;temperature;humidity
47368;DHT22;34646;47.964;7.982;2022-11-14T00:02:28;16.00;73.40
47368;DHT22;34646;47.964;7.982;2022-11-14T00:08:47;16.00;73.30
47368;DHT22;34646;47.964;7.982;2022-11-14T00:15:07;16.00;73.30
47368;DHT22;34646;47.964;7.982;2022-11-14T00:21:27;16.00;73.30
47368;DHT22;34646;47.964;7.982;2022-11-14T00:27:46;16.00;73.30
47368;DHT22;34646;47.964;7.982;2022-11-14T00:34:05;16.00;73.30
47368;DHT22;34646;47.964;7.982;2022-11-14T00:40:24;16.00;73.30
47368;DHT22;34646;47.964;7.982;2022-11-14T00:46:43;16.00;73.40
47368;DHT22;34646;47.964;7.982;2022-11-14T00:53:03;16.00;73.40
47368;DHT22;34646;47.964;7.982;2022-11-14T00:59:22;16.00;73.40
47368;DHT22;34646;47.964;7.982;2022-11-14T01:05:47;16.00;73.40
47368;DHT22;34646;47.964;7.982;2022-11-14T01:12:07;16.00;73.40
47368;DHT22;34646;47.964;7.982;2022-11-14T01:18:26;16.00;73.40
47368;DHT22;34646;47.964;7.982;2022-11-14T01:24:45;16.00;73.90
47368;DHT22;34646;47.964;7.982;2022-11-14T01:31:16;16.00;73.40
47368;DHT22;34646;47.964;7.982;2022-11-14T01:37:36;16.00;73.40
47368;DHT22;34646;47.964;7.982;2022-11-14T01:43:55;16.00;73.40
47368;DHT22;34646;47.964;7.982;2022-11-14T01:50:14;16.00;73.40
47368;DHT22;34646;47.964;7.982;2022-11-14T01:56:45;16.00;73.40
47368;DHT22;34646;47.964;7.982;2022-11-14T02:03:05;15.90;73.30
47368;DHT22;34646;47.964;7.982;2022-11-14T02:09:26;16.00;73.40
47368;DHT22;34646;47.964;7.982;2022-11-14T02:15:46;15.90;73.30
47368;DHT22;34646;47.964;7.982;2022-11-14T02:22:05;16.00;73.40
47368;DHT22;34646;47.964;7.982;2022-11-14T02:28:25;16.00;73.40
47368;DHT22;34646;47.964;7.982;2022-11-14T02:34:44;16.00;73.40
47368;DHT22;34646;47.964;7.982;2022-11-14T02:41:03;16.00;73.40
47368;DHT22;34646;47.964;7.982;2022-11-14T02:47:23;15.90;73.40
47368;DHT22;34646;47.964;7.982;2022-11-14T02:53:45;15.90;73.30
47368;DHT22;34646;47.964;7.982;2022-11-14T03:00:04;15.90;73.30
47368;DHT22;34646;47.964;7.982;2022-11-14T03:06:24;15.90;73.30
47368;DHT22;34646;47.964;7.982;2022-11-14T03:12:43;15.90;73.30
47368;DHT22;34646;47.964;7.982;2022-11-14T03:19:02;15.90;73.30
47368;DHT22;34646;47.964;7.982;2022-11-14T03:25:22;15.90;73.40
47368;DHT22;34646;47.964;7.982;2022-11-14T03:31:41;15.90;73.40
47368;DHT22;34646;47.964;7.982;2022-11-14T03:38:00;15.90;73.40
47368;DHT22;34646;47.964;7.982;2022-11-14T03:44:20;15.90;73.30
47368;DHT22;34646;47.964;7.982;2022-11-14T03:50:39;15.90;73.30
47368;DHT22;34646;47.964;7.982;2022-11-14T03:56:58;15.90;73.40
47368;DHT22;34646;47.964;7.982;2022-11-14T04:03:17;15.90;73.30
47368;DHT22;34646;47.964;7.982;2022-11-14T04:09:37;15.90;73.30
47368;DHT22;34646;47.964;7.982;2022-11-14T04:15:57;15.90;73.40
47368;DHT22;34646;47.964;7.982;2022-11-14T04:22:16;15.90;73.30
47368;DHT22;34646;47.964;7.982;2022-11-14T04:28:35;15.90;73.30
47368;DHT22;34646;47.964;7.982;2022-11-14T04:34:54;15.90;73.30
47368;DHT22;34646;47.964;7.982;2022-11-14T04:41:13;15.90;73.30
47368;DHT22;34646;47.964;7.982;2022-11-14T04:47:32;15.90;73.20
47368;DHT22;34646;47.964;7.982;2022-11-14T04:53:52;16.10;73.00
47368;DHT22;34646;47.964;7.982;2022-11-14T05:00:11;16.10;72.80
47368;DHT22;34646;47.964;7.982;2022-11-14T05:06:31;16.10;72.60
47368;DHT22;34646;47.964;7.982;2022-11-14T05:12:54;16.20;72.60
47368;DHT22;34646;47.964;7.982;2022-11-14T05:19:13;16.20;72.50
47368;DHT22;34646;47.964;7.982;2022-11-14T05:25:32;16.30;72.40
47368;DHT22;34646;47.964;7.982;2022-11-14T05:31:51;16.30;72.40
47368;DHT22;34646;47.964;7.982;2022-11-14T05:38:11;16.30;72.30
47368;DHT22;34646;47.964;7.982;2022-11-14T05:44:30;16.30;72.30
47368;DHT22;34646;47.964;7.982;2022-11-14T05:50:53;16.50;72.60
47368;DHT22;34646;47.964;7.982;2022-11-14T05:57:13;16.40;72.40
47368;DHT22;34646;47.964;7.982;2022-11-14T06:03:37;16.50;72.40
47368;DHT22;34646;47.964;7.982;2022-11-14T06:09:58;16.50;72.20
47368;DHT22;34646;47.964;7.982;2022-11-14T06:16:18;16.60;72.10
47368;DHT22;34646;47.964;7.982;2022-11-14T06:22:39;16.60;72.10
47368;DHT22;34646;47.964;7.982;2022-11-14T06:28:58;16.70;71.80
47368;DHT22;34646;47.964;7.982;2022-11-14T06:35:18;16.80;71.80
47368;DHT22;34646;47.964;7.982;2022-11-14T06:41:37;16.80;71.70
47368;DHT22;34646;47.964;7.982;2022-11-14T06:47:59;16.80;71.50
47368;DHT22;34646;47.964;7.982;2022-11-14T06:54:18;16.90;71.60
47368;DHT22;34646;47.964;7.982;2022-11-14T07:00:37;17.00;71.50
47368;DHT22;34646;47.964;7.982;2022-11-14T07:06:57;17.00;71.40
47368;DHT22;34646;47.964;7.982;2022-11-14T07:13:16;17.00;71.30
47368;DHT22;34646;47.964;7.982;2022-11-14T07:19:35;17.00;71.30
47368;DHT22;34646;47.964;7.982;2022-11-14T07:25:54;17.00;71.20
47368;DHT22;34646;47.964;7.982;2022-11-14T07:32:13;17.10;71.20
47368;DHT22;34646;47.964;7.982;2022-11-14T07:38:34;17.00;71.20
47368;DHT22;34646;47.964;7.982;2022-11-14T07:44:53;17.10;71.10
47368;DHT22;34646;47.964;7.982;2022-11-14T07:51:17;17.10;71.20
47368;DHT22;34646;47.964;7.982;2022-11-14T07:57:37;17.10;71.10
47368;DHT22;34646;47.964;7.982;2022-11-14T08:03:56;17.10;71.20
47368;DHT22;34646;47.964;7.982;2022-11-14T08:10:15;17.10;71.10
47368;DHT22;34646;47.964;7.982;2022-11-14T08:16:35;17.10;71.10
47368;DHT22;34646;47.964;7.982;2022-11-14T08:23:02;17.20;71.10
47368;DHT22;34646;47.964;7.982;2022-11-14T08:29:22;17.20;71.20
47368;DHT22;34646;47.964;7.982;2022-11-14T08:35:41;17.10;71.10
47368;DHT22;34646;47.964;7.982;2022-11-14T08:42:00;17.20;71.10
47368;DHT22;34646;47.964;7.982;2022-11-14T08:48:19;17.10;71.10
47368;DHT22;34646;47.964;7.982;2022-11-14T08:54:38;17.20;71.10
47368;DHT22;34646;47.964;7.982;2022-11-14T09:01:03;17.20;71.10
47368;DHT22;34646;47.964;7.982;2022-11-14T09:07:22;17.20;71.10
47368;DHT22;34646;47.964;7.982;2022-11-14T09:13:41;17.20;71.10
47368;DHT22;34646;47.964;7.982;2022-11-14T09:20:00;17.20;71.10
47368;DHT22;34646;47.964;7.982;2022-11-14T09:26:19;17.20;71.10
47368;DHT22;34646;47.964;7.982;2022-11-14T09:32:38;17.20;71.00
47368;DHT22;34646;47.964;7.982;2022-11-14T09:38:57;17.30;71.10
47368;DHT22;34646;47.964;7.982;2022-11-14T09:45:16;17.30;71.10
47368;DHT22;34646;47.964;7.982;2022-11-14T09:51:44;17.30;71.00
47368;DHT22;34646;47.964;7.982;2022-11-14T09:58:10;17.30;71.10
47368;DHT22;34646;47.964;7.982;2022-11-14T10:04:44;17.30;71.00
47368;DHT22;34646;47.964;7.982;2022-11-14T10:11:10;17.30;71.00
47368;DHT22;34646;47.964;7.982;2022-11-14T10:31:01;17.30;70.90
47368;DHT22;34646;47.964;7.982;2022-11-14T10:37:35;17.30;71.00
47368;DHT22;34646;47.964;7.982;2022-11-14T10:43:55;17.40;71.00
47368;DHT22;34646;47.964;7.982;2022-11-14T10:50:21;17.40;71.00
47368;DHT22;34646;47.964;7.982;2022-11-14T10:56:53;17.30;70.90
47368;DHT22;34646;47.964;7.982;2022-11-14T11:03:12;17.40;71.00
47368;DHT22;34646;47.964;7.982;2022-11-14T11:09:35;17.40;71.00
47368;DHT22;34646;47.964;7.982;2022-11-14T11:16:14;17.50;70.70
47368;DHT22;34646;47.964;7.982;2022-11-14T11:22:38;17.70;70.30
47368;DHT22;34646;47.964;7.982;2022-11-14T11:29:16;18.00;69.80
47368;DHT22;34646;47.964;7.982;2022-11-14T11:35:36;18.10;69.20
47368;DHT22;34646;47.964;7.982;2022-11-14T11:41:58;18.30;68.90
47368;DHT22;34646;47.964;7.982;2022-11-14T11:48:22;18.10;68.80
47368;DHT22;34646;47.964;7.982;2022-11-14T11:55:32;18.00;68.90
47368;DHT22;34646;47.964;7.982;2022-11-14T12:01:32;18.00;69.10
47368;DHT22;34646;47.964;7.982;2022-11-14T12:08:01;18.00;69.30
47368;DHT22;34646;47.964;7.982;2022-11-14T12:14:47;18.00;69.70
47368;DHT22;34646;47.964;7.982;2022-11-14T12:21:19;17.90;70.20
47368;DHT22;34646;47.964;7.982;2022-11-14T12:27:46;17.90;70.80
47368;DHT22;34646;47.964;7.982;2022-11-14T12:34:21;17.80;71.30
47368;DHT22;34646;47.964;7.982;2022-11-14T12:41:09;17.80;72.00
47368;DHT22;34646;47.964;7.982;2022-11-14T12:47:29;17.80;72.30
47368;DHT22;34646;47.964;7.982;2022-11-14T12:53:48;17.80;72.70
47368;DHT22;34646;47.964;7.982;2022-11-14T13:00:08;17.70;73.30
47368;DHT22;34646;47.964;7.982;2022-11-14T13:13:13;17.60;74.00
47368;DHT22;34646;47.964;7.982;2022-11-14T13:19:52;17.60;74.30
47368;DHT22;34646;47.964;7.982;2022-11-14T13:32:53;17.50;74.70
47368;DHT22;34646;47.964;7.982;2022-11-14T13:39:36;17.50;74.80
47368;DHT22;34646;47.964;7.982;2022-11-14T13:46:32;17.50;74.80
47368;DHT22;34646;47.964;7.982;2022-11-14T13:52:56;17.40;74.80
47368;DHT22;34646;47.964;7.982;2022-11-14T14:25:59;17.30;75.00
47368;DHT22;34646;47.964;7.982;2022-11-14T14:32:23;17.30;74.90
47368;DHT22;34646;47.964;7.982;2022-11-14T14:38:42;17.20;74.90
47368;DHT22;34646;47.964;7.982;2022-11-14T14:45:03;17.20;74.80
47368;DHT22;34646;47.964;7.982;2022-11-14T14:51:34;17.20;74.80
47368;DHT22;34646;47.964;7.982;2022-11-14T14:57:53;17.20;74.80
47368;DHT22;34646;47.964;7.982;2022-11-14T15:04:14;17.20;74.90
47368;DHT22;34646;47.964;7.982;2022-11-14T15:10:35;17.10;74.80
47368;DHT22;34646;47.964;7.982;2022-11-14T15:16:55;17.10;74.80
47368;DHT22;34646;47.964;7.982;2022-11-14T15:23:19;17.10;74.80
47368;DHT22;34646;47.964;7.982;2022-11-14T15:29:52;17.10;74.80
47368;DHT22;34646;47.964;7.982;2022-11-14T15:36:14;17.10;74.80
47368;DHT22;34646;47.964;7.982;2022-11-14T15:42:35;17.00;74.70
47368;DHT22;34646;47.964;7.982;2022-11-14T15:48:54;17.00;74.70
47368;DHT22;34646;47.964;7.982;2022-11-14T15:55:20;17.00;74.70
47368;DHT22;34646;47.964;7.982;2022-11-14T16:01:41;17.00;74.70
47368;DHT22;34646;47.964;7.982;2022-11-14T16:08:00;17.00;74.90
47368;DHT22;34646;47.964;7.982;2022-11-14T16:14:19;17.00;74.60
47368;DHT22;34646;47.964;7.982;2022-11-14T16:20:38;17.00;74.70
47368;DHT22;34646;47.964;7.982;2022-11-14T16:27:00;16.90;74.60
47368;DHT22;34646;47.964;7.982;2022-11-14T16:33:19;16.90;74.60
47368;DHT22;34646;47.964;7.982;2022-11-14T16:39:38;16.90;75.10
47368;DHT22;34646;47.964;7.982;2022-11-14T16:45:57;16.90;74.60
47368;DHT22;34646;47.964;7.982;2022-11-14T16:52:17;16.90;74.60
47368;DHT22;34646;47.964;7.982;2022-11-14T16:58:38;16.90;74.50
47368;DHT22;34646;47.964;7.982;2022-11-14T17:05:00;16.90;74.50
47368;DHT22;34646;47.964;7.982;2022-11-14T17:11:19;16.90;74.50
47368;DHT22;34646;47.964;7.982;2022-11-14T17:17:38;16.90;74.50
47368;DHT22;34646;47.964;7.982;2022-11-14T17:23:59;16.90;74.50
47368;DHT22;34646;47.964;7.982;2022-11-14T17:30:22;16.80;74.40
47368;DHT22;34646;47.964;7.982;2022-11-14T17:36:41;16.80;74.40
47368;DHT22;34646;47.964;7.982;2022-11-14T17:43:00;16.80;74.40
47368;DHT22;34646;47.964;7.982;2022-11-14T17:49:19;16.80;74.30
47368;DHT22;34646;47.964;7.982;2022-11-14T17:55:38;16.80;74.30
47368;DHT22;34646;47.964;7.982;2022-11-14T18:01:57;16.90;74.50
47368;DHT22;34646;47.964;7.982;2022-11-14T18:08:18;16.90;74.40
47368;DHT22;34646;47.964;7.982;2022-11-14T18:14:37;16.80;74.30
47368;DHT22;34646;47.964;7.982;2022-11-14T18:20:56;16.60;68.60
47368;DHT22;34646;47.964;7.982;2022-11-14T18:27:15;16.60;74.20
47368;DHT22;34646;47.964;7.982;2022-11-14T18:33:34;16.70;74.00
47368;DHT22;34646;47.964;7.982;2022-11-14T18:39:54;16.80;74.00
47368;DHT22;34646;47.964;7.982;2022-11-14T18:46:21;16.80;73.80
47368;DHT22;34646;47.964;7.982;2022-11-14T18:52:41;16.80;73.80
47368;DHT22;34646;47.964;7.982;2022-11-14T18:59:00;16.80;73.60
47368;DHT22;34646;47.964;7.982;2022-11-14T19:05:19;16.80;73.50
47368;DHT22;34646;47.964;7.982;2022-11-14T19:11:38;16.80;73.10
47368;DHT22;34646;47.964;7.982;2022-11-14T19:18:16;16.80;72.40
47368;DHT22;34646;47.964;7.982;2022-11-14T19:24:35;16.80;71.90
47368;DHT22;34646;47.964;7.982;2022-11-14T19:31:05;16.80;71.40
47368;DHT22;34646;47.964;7.982;2022-11-14T19:37:25;16.70;71.00
47368;DHT22;34646;47.964;7.982;2022-11-14T19:43:44;16.70;70.90
47368;DHT22;34646;47.964;7.982;2022-11-14T19:50:03;16.80;70.30
47368;DHT22;34646;47.964;7.982;2022-11-14T19:56:23;16.80;70.50
47368;DHT22;34646;47.964;7.982;2022-11-14T20:02:46;16.80;70.70
47368;DHT22;34646;47.964;7.982;2022-11-14T20:09:06;16.90;70.90
47368;DHT22;34646;47.964;7.982;2022-11-14T20:15:28;17.10;71.00
47368;DHT22;34646;47.964;7.982;2022-11-14T20:21:47;17.30;70.50
47368;DHT22;34646;47.964;7.982;2022-11-14T20:28:07;17.30;70.80
47368;DHT22;34646;47.964;7.982;2022-11-14T20:34:27;17.20;71.20
47368;DHT22;34646;47.964;7.982;2022-11-14T20:40:54;17.20;71.40
47368;DHT22;34646;47.964;7.982;2022-11-14T20:47:13;17.20;71.70
47368;DHT22;34646;47.964;7.982;2022-11-14T20:53:32;17.20;71.70
47368;DHT22;34646;47.964;7.982;2022-11-14T20:59:52;17.20;71.90
47368;DHT22;34646;47.964;7.982;2022-11-14T21:06:12;17.20;72.00
47368;DHT22;34646;47.964;7.982;2022-11-14T21:12:31;17.20;72.10
47368;DHT22;34646;47.964;7.982;2022-11-14T21:18:54;17.20;72.20
47368;DHT22;34646;47.964;7.982;2022-11-14T21:25:13;17.20;72.30
47368;DHT22;34646;47.964;7.982;2022-11-14T21:31:37;17.20;72.40
47368;DHT22;34646;47.964;7.982;2022-11-14T21:37:56;17.20;72.40
47368;DHT22;34646;47.964;7.982;2022-11-14T21:44:16;17.30;72.50
47368;DHT22;34646;47.964;7.982;2022-11-14T21:50:35;17.30;72.50
47368;DHT22;34646;47.964;7.982;2022-11-14T21:56:54;17.30;72.50
47368;DHT22;34646;47.964;7.982;2022-11-14T22:03:15;17.30;72.50
47368;DHT22;34646;47.964;7.982;2022-11-14T22:09:53;17.30;72.50
47368;DHT22;34646;47.964;7.982;2022-11-14T22:16:13;17.30;72.50
47368;DHT22;34646;47.964;7.982;2022-11-14T22:22:35;17.30;72.50
47368;DHT22;34646;47.964;7.982;2022-11-14T22:28:54;17.30;72.50
47368;DHT22;34646;47.964;7.982;2022-11-14T22:35:13;17.30;72.50
47368;DHT22;34646;47.964;7.982;2022-11-14T22:41:32;17.30;72.50
47368;DHT22;34646;47.964;7.982;2022-11-14T22:47:56;17.30;72.50
47368;DHT22;34646;47.964;7.982;2022-11-14T22:54:15;17.40;72.50
47368;DHT22;34646;47.964;7.982;2022-11-14T23:00:34;17.30;72.50
47368;DHT22;34646;47.964;7.982;2022-11-14T23:06:53;17.40;72.50
47368;DHT22;34646;47.964;7.982;2022-11-14T23:13:13;17.40;72.50
47368;DHT22;34646;47.964;7.982;2022-11-14T23:19:32;17.40;72.50
47368;DHT22;34646;47.964;7.982;2022-11-14T23:25:51;17.40;72.50
47368;DHT22;34646;47.964;7.982;2022-11-14T23:32:10;17.40;72.50
47368;DHT22;34646;47.964;7.982;2022-11-14T23:38:30;17.40;72.50
47368;DHT22;34646;47.964;7.982;2022-11-14T23:44:49;17.30;72.40
47368;DHT22;34646;47.964;7.982;2022-11-14T23:51:08;17.40;72.40
47368;DHT22;34646;47.964;7.982;2022-11-14T23:57:29;17.40;72.40
